Time;durP1;ratioP1;P1;durP2;ratioP2;P2;SDS_P1;SDS_P2;PMS_P1;PMS_P2;Temp;Humidity;BMP_temperature;BMP_pressure;BME280_temperature;BME280_humidity;BME280_pressure;Samples;Min_cycle;Max_cycle;Signal;HPM_P1;HPM_P2
2022/07/15 00:01:52;;;;;;;3.38;2.10;;;;;;;20.79;62.06;100366.25;5032089;28;20105;-63
2022/07/15 00:04:17;;;;;;;4.93;2.25;;;;;;;20.75;61.47;100362.03;5034268;28;20112;-63
2022/07/15 00:06:43;;;;;;;4.25;2.13;;;;;;;20.70;62.32;100358.78;5032965;28;20487;-63
2022/07/15 00:09:08;;;;;;;5.05;2.08;;;;;;;20.70;62.56;100353.38;5033730;28;20041;-63
2022/07/15 00:11:34;;;;;;;3.67;2.20;;;;;;;20.70;61.97;100361.47;5033791;28;20055;-64
2022/07/15 00:14:00;;;;;;;5.05;2.08;;;;;;;20.57;61.52;100355.19;5037923;28;20032;-64
2022/07/15 00:16:26;;;;;;;5.78;2.47;;;;;;;20.52;61.16;100351.94;5052083;28;20033;-64
2022/07/15 00:18:51;;;;;;;4.55;2.00;;;;;;;20.47;62.08;100354.06;5033766;28;20139;-64
2022/07/15 00:21:16;;;;;;;4.82;2.25;;;;;;;20.42;62.44;100350.81;5052007;28;20104;-64
2022/07/15 00:23:42;;;;;;;5.38;2.42;;;;;;;20.35;63.09;100359.41;5051692;28;20083;-64
2022/07/15 00:26:07;;;;;;;7.97;2.25;;;;;;;20.31;63.31;100360.59;5051759;28;20029;-64
2022/07/15 00:28:33;;;;;;;4.18;2.35;;;;;;;20.27;62.82;100350.97;5051264;28;20075;-64
2022/07/15 00:30:58;;;;;;;4.78;2.22;;;;;;;20.26;62.70;100350.09;5053412;28;20029;-65
2022/07/15 00:33:24;;;;;;;5.57;2.47;;;;;;;20.28;63.02;100348.16;5053200;28;20025;-65
2022/07/15 00:35:49;;;;;;;4.53;2.20;;;;;;;20.21;62.30;100346.84;5053265;28;20559;-65
2022/07/15 00:38:15;;;;;;;4.03;2.30;;;;;;;20.20;61.78;100352.34;5019316;28;20025;-64
2022/07/15 00:40:45;;;;;;;4.60;2.30;;;;;;;20.18;62.95;100347.03;5033169;28;20040;-64
2022/07/15 00:43:11;;;;;;;5.53;2.10;;;;;;;20.17;61.65;100345.31;5032964;28;20033;-65
2022/07/15 00:45:37;;;;;;;4.38;2.22;;;;;;;20.14;61.55;100345.50;5050847;28;20146;-65
2022/07/15 00:48:02;;;;;;;6.57;2.15;;;;;;;20.04;61.72;100348.88;5053257;28;20051;-65
2022/07/15 00:50:30;;;;;;;3.60;2.10;;;;;;;19.91;62.85;100346.13;5053047;28;20021;-65
2022/07/15 00:53:16;;;;;;;6.43;2.22;;;;;;;19.83;62.38;100347.59;5052985;28;20057;-65
2022/07/15 00:55:45;;;;;;;8.50;2.53;;;;;;;19.78;63.34;100342.50;5052210;28;20472;-65
2022/07/15 00:58:18;;;;;;;6.55;2.38;;;;;;;19.68;64.20;100338.66;5052871;28;20025;-65
2022/07/15 01:00:46;;;;;;;4.57;2.60;;;;;;;19.69;65.27;100348.50;5052795;28;20116;-65
2022/07/15 01:03:17;;;;;;;5.95;2.85;;;;;;;19.61;65.36;100345.41;5052803;28;20392;-65
2022/07/15 01:05:44;;;;;;;5.72;2.78;;;;;;;19.58;65.55;100342.91;5052907;28;20415;-65
2022/07/15 01:08:10;;;;;;;4.22;2.38;;;;;;;19.51;65.50;100344.28;5052154;28;20060;-65
2022/07/15 01:10:36;;;;;;;4.90;2.50;;;;;;;19.40;66.23;100336.00;5051847;28;20528;-65
2022/07/15 01:13:02;;;;;;;5.50;2.58;;;;;;;19.38;66.24;100344.19;5052837;28;20025;-65
2022/07/15 01:15:28;;;;;;;5.13;2.47;;;;;;;19.31;66.54;100342.84;5052511;28;20032;-65
2022/07/15 01:17:53;;;;;;;8.38;2.72;;;;;;;19.25;66.56;100353.13;5048635;28;20631;-65
2022/07/15 01:20:19;;;;;;;4.72;2.30;;;;;;;19.18;66.78;100352.63;5051888;28;20170;-65
2022/07/15 01:22:45;;;;;;;6.72;2.58;;;;;;;19.13;68.50;100348.47;5050551;28;20086;-65
2022/07/15 01:25:10;;;;;;;5.68;2.95;;;;;;;19.10;69.71;100349.56;5047491;28;20033;-65
2022/07/15 01:27:37;;;;;;;6.00;2.70;;;;;;;19.00;69.94;100347.50;5050785;28;20021;-65
2022/07/15 01:30:03;;;;;;;5.13;2.50;;;;;;;18.87;69.21;100350.09;5050595;28;20102;-65
2022/07/15 01:32:29;;;;;;;6.05;2.60;;;;;;;18.84;69.62;100352.09;5050516;28;20044;-65
2022/07/15 01:34:54;;;;;;;5.35;2.47;;;;;;;18.77;71.59;100348.03;5050564;28;20021;-65
2022/07/15 01:37:20;;;;;;;4.78;2.55;;;;;;;18.60;72.88;100345.53;5052039;28;20374;-66
2022/07/15 01:39:45;;;;;;;5.97;2.83;;;;;;;18.51;73.37;100351.44;5050633;28;20036;-65
2022/07/15 01:42:11;;;;;;;6.30;3.20;;;;;;;18.50;74.01;100341.63;5050050;28;20044;-65
2022/07/15 01:44:36;;;;;;;5.90;2.80;;;;;;;18.45;74.71;100344.59;5040139;28;20579;-65
2022/07/15 01:47:02;;;;;;;7.75;3.20;;;;;;;18.38;75.33;100357.50;5030187;28;20026;-65
2022/07/15 01:49:31;;;;;;;5.68;2.70;;;;;;;18.29;76.04;100347.31;5030054;28;20030;-66
2022/07/15 01:51:58;;;;;;;4.65;2.75;;;;;;;18.24;76.40;100349.41;5031308;28;20108;-66
2022/07/15 01:54:25;;;;;;;7.63;2.78;;;;;;;18.23;75.96;100355.75;5031766;28;20030;-66
2022/07/15 01:56:52;;;;;;;6.13;2.90;;;;;;;18.25;75.99;100350.28;5032072;28;20117;-65
2022/07/15 01:59:18;;;;;;;5.13;2.97;;;;;;;18.24;75.72;100354.78;5031656;28;20059;-65
2022/07/15 02:01:44;;;;;;;5.63;2.72;;;;;;;18.19;75.70;100348.78;5031663;28;20436;-66
2022/07/15 02:04:12;;;;;;;5.22;3.00;;;;;;;18.19;75.94;100340.72;5031681;28;20029;-65
2022/07/15 02:06:38;;;;;;;7.22;2.63;;;;;;;18.14;76.02;100332.03;5031673;28;20571;-65
2022/07/15 02:09:04;;;;;;;6.25;2.70;;;;;;;18.15;76.67;100343.69;5031555;28;20021;-65
2022/07/15 02:11:29;;;;;;;6.13;3.00;;;;;;;18.11;76.62;100343.00;5049103;28;20017;-65
2022/07/15 02:13:58;;;;;;;5.78;2.90;;;;;;;18.12;76.96;100344.72;5051338;28;20033;-65
2022/07/15 02:16:29;;;;;;;6.65;2.80;;;;;;;18.16;77.39;100343.59;5051264;28;20036;-65
2022/07/15 02:18:58;;;;;;;4.82;2.60;;;;;;;18.12;77.68;100335.78;5050764;28;20405;-66
2022/07/15 02:21:26;;;;;;;5.40;2.88;;;;;;;18.11;77.79;100334.91;5051030;28;20055;-66
2022/07/15 02:23:52;;;;;;;4.22;2.45;;;;;;;18.12;78.01;100336.63;5050668;28;20032;-65
2022/07/15 02:26:18;;;;;;;5.18;2.50;;;;;;;18.03;78.08;100337.19;5050810;28;20477;-65
2022/07/15 02:28:44;;;;;;;5.63;2.83;;;;;;;17.97;78.34;100324.06;5049037;28;20040;-65
2022/07/15 02:31:09;;;;;;;6.03;3.10;;;;;;;17.93;78.82;100332.41;5049248;28;20457;-65
2022/07/15 02:33:35;;;;;;;5.10;2.88;;;;;;;17.80;79.21;100324.19;5048898;28;20025;-65
2022/07/15 02:36:00;;;;;;;6.50;3.17;;;;;;;17.84;80.13;100333.81;5049291;28;20075;-65
2022/07/15 02:38:25;;;;;;;7.18;3.30;;;;;;;17.79;80.02;100337.72;5049559;28;20503;-65
2022/07/15 02:40:51;;;;;;;6.53;3.28;;;;;;;17.80;80.52;100340.34;5049603;28;20103;-65
2022/07/15 02:43:16;;;;;;;9.48;3.80;;;;;;;17.78;80.36;100342.22;5050937;28;20476;-65
2022/07/15 02:45:42;;;;;;;6.35;3.58;;;;;;;17.78;80.32;100338.66;5032128;28;20030;-65
2022/07/15 02:48:08;;;;;;;7.30;3.05;;;;;;;17.76;79.70;100343.28;5033325;28;20619;-65
2022/07/15 02:50:35;;;;;;;5.38;3.28;;;;;;;17.72;79.61;100342.59;5031116;28;20025;-65
2022/07/15 02:53:01;;;;;;;8.32;3.03;;;;;;;17.75;79.87;100342.41;5030784;28;20034;-65
2022/07/15 02:55:27;;;;;;;8.15;3.78;;;;;;;17.78;80.11;100344.94;5028784;28;20031;-65
2022/07/15 02:57:52;;;;;;;5.10;3.00;;;;;;;17.83;79.42;100340.16;5029031;28;20431;-65
2022/07/15 03:00:19;;;;;;;7.88;3.63;;;;;;;17.81;79.62;100339.38;5029429;28;20468;-65
2022/07/15 03:02:45;;;;;;;7.97;2.88;;;;;;;17.76;79.50;100333.38;5028665;28;20021;-65
2022/07/15 03:05:12;;;;;;;5.80;3.05;;;;;;;17.78;79.42;100342.22;5030530;28;20026;-66
2022/07/15 03:07:37;;;;;;;7.10;2.72;;;;;;;17.74;81.02;100343.34;5048702;28;20033;-66
2022/07/15 03:10:05;;;;;;;7.40;3.30;;;;;;;17.74;80.81;100351.41;5050170;28;20032;-66
2022/07/15 03:12:30;;;;;;;6.15;3.00;;;;;;;17.76;80.17;100349.53;5050545;28;20062;-65
2022/07/15 03:14:56;;;;;;;6.20;3.03;;;;;;;17.74;80.47;100345.19;5050359;28;20060;-65
2022/07/15 03:17:22;;;;;;;7.45;3.25;;;;;;;17.69;80.87;100341.91;5046965;28;20022;-65
2022/07/15 03:19:47;;;;;;;6.20;3.20;;;;;;;17.64;80.31;100355.63;5050248;28;20075;-65
2022/07/15 03:22:12;;;;;;;5.75;3.03;;;;;;;17.62;80.96;100351.25;5050801;28;20029;-65
2022/07/15 03:24:38;;;;;;;6.65;3.20;;;;;;;17.54;81.22;100349.00;5050381;28;20024;-65
2022/07/15 03:27:03;;;;;;;5.18;2.58;;;;;;;17.52;81.40;100350.03;5050707;28;20480;-65
2022/07/15 03:29:29;;;;;;;7.75;3.20;;;;;;;17.50;81.51;100346.53;5048975;28;20025;-65
2022/07/15 03:31:55;;;;;;;4.75;2.85;;;;;;;17.48;81.47;100343.94;5042625;28;20025;-65
2022/07/15 03:34:20;;;;;;;5.53;2.95;;;;;;;17.47;80.21;100352.97;5046780;28;20066;-65
2022/07/15 03:36:46;;;;;;;6.70;3.35;;;;;;;17.46;80.58;100348.53;5051365;28;20056;-65
2022/07/15 03:39:11;;;;;;;5.80;3.10;;;;;;;17.48;80.26;100345.78;5051635;28;20117;-65
2022/07/15 03:41:36;;;;;;;6.43;2.90;;;;;;;17.47;80.65;100363.75;5051258;28;20032;-65
2022/07/15 03:44:03;;;;;;;5.55;2.88;;;;;;;17.49;80.44;100369.03;5052003;28;20017;-65
2022/07/15 03:46:29;;;;;;;6.55;2.90;;;;;;;17.52;79.82;100363.47;5054183;28;20025;-65
2022/07/15 03:48:55;;;;;;;10.88;3.22;;;;;;;17.52;79.73;100367.03;5054234;28;20040;-65
2022/07/15 03:51:21;;;;;;;5.63;3.20;;;;;;;17.56;79.50;100363.22;5054088;28;20040;-65
2022/07/15 03:53:46;;;;;;;5.85;2.50;;;;;;;17.57;79.86;100367.66;5054018;28;20126;-65
2022/07/15 03:56:12;;;;;;;7.53;3.25;;;;;;;17.60;80.42;100364.78;5054189;28;20067;-65
2022/07/15 03:58:38;;;;;;;13.95;3.40;;;;;;;17.57;80.26;100370.34;5053914;28;20082;-65
2022/07/15 04:01:04;;;;;;;7.55;2.97;;;;;;;17.52;79.94;100372.44;5053688;28;20045;-65
2022/07/15 04:03:29;;;;;;;7.97;3.20;;;;;;;17.51;80.45;100375.19;5054236;28;20029;-65
2022/07/15 04:05:55;;;;;;;8.30;3.65;;;;;;;17.51;80.08;100375.19;5053796;28;20078;-65
2022/07/15 04:08:20;;;;;;;5.05;2.83;;;;;;;17.51;79.88;100370.66;5050067;28;20074;-65
2022/07/15 04:10:46;;;;;;;4.43;2.50;;;;;;;17.55;80.17;100382.13;5053572;28;20533;-65
2022/07/15 04:13:11;;;;;;;7.35;3.05;;;;;;;17.57;79.87;100386.50;5053688;28;20103;-65
2022/07/15 04:15:37;;;;;;;3.15;2.33;;;;;;;17.62;80.61;100380.84;5053582;28;20032;-65
2022/07/15 04:18:02;;;;;;;10.60;2.78;;;;;;;17.61;80.63;100385.34;5053124;28;20017;-66
2022/07/15 04:20:28;;;;;;;4.47;2.55;;;;;;;17.51;79.60;100375.19;5053760;28;20037;-66
2022/07/15 04:22:53;;;;;;;6.68;2.58;;;;;;;17.54;80.06;100381.28;5053583;28;20103;-66
2022/07/15 04:25:21;;;;;;;11.02;2.92;;;;;;;17.58;80.18;100387.34;5053503;28;20028;-66
2022/07/15 04:27:50;;;;;;;13.60;3.10;;;;;;;17.59;79.64;100387.28;5053296;28;20053;-66
2022/07/15 04:30:15;;;;;;;7.68;3.40;;;;;;;17.65;79.96;100386.06;5052937;28;20029;-67
2022/07/15 04:32:43;;;;;;;5.55;2.90;;;;;;;17.78;79.32;100393.38;5053327;28;20495;-66
2022/07/15 04:35:08;;;;;;;5.50;2.80;;;;;;;17.86;78.93;100401.00;5053502;28;20036;-66
2022/07/15 04:37:34;;;;;;;4.85;2.92;;;;;;;17.91;77.53;100390.84;5053016;28;20468;-66
2022/07/15 04:39:59;;;;;;;7.93;3.08;;;;;;;18.02;78.05;100383.88;5051682;28;20047;-66
2022/07/15 04:42:25;;;;;;;7.78;3.00;;;;;;;18.08;77.76;100394.31;5051657;28;20427;-66
2022/07/15 04:44:51;;;;;;;9.57;2.92;;;;;;;18.26;77.78;100387.00;5038724;28;20064;-66
2022/07/15 04:47:17;;;;;;;5.18;2.63;;;;;;;18.41;76.92;100391.53;5031262;28;20033;-65
2022/07/15 04:52:42;;;;;;;4.95;2.55;;;;;;;18.66;75.37;100386.44;4992871;28;20038;-65
2022/07/15 04:55:08;;;;;;;4.25;2.65;;;;;;;18.76;73.80;100389.44;5033611;28;20030;-65
2022/07/15 04:57:33;;;;;;;7.15;2.70;;;;;;;18.84;74.03;100389.84;5031354;28;20403;-65
2022/07/15 04:59:59;;;;;;;7.35;3.30;;;;;;;18.87;74.46;100392.34;5031374;28;20495;-65
2022/07/15 05:02:25;;;;;;;4.90;2.88;;;;;;;18.94;74.72;100396.41;5031302;28;20033;-65
2022/07/15 05:04:51;;;;;;;6.25;3.03;;;;;;;18.96;74.09;100395.34;5031933;28;20025;-65
2022/07/15 05:07:16;;;;;;;7.18;3.22;;;;;;;18.96;73.64;100386.41;5032502;28;20030;-65
2022/07/15 05:09:41;;;;;;;5.30;3.03;;;;;;;19.07;73.24;100394.72;5032451;28;20018;-65
2022/07/15 05:12:07;;;;;;;4.80;2.83;;;;;;;19.09;71.75;100403.59;5049561;28;20025;-65
2022/07/15 05:14:32;;;;;;;5.25;3.05;;;;;;;19.10;71.72;100408.00;5050408;28;20031;-65
2022/07/15 05:16:58;;;;;;;5.30;3.08;;;;;;;19.08;71.35;100399.13;5052453;28;20017;-65
2022/07/15 05:19:23;;;;;;;5.47;3.15;;;;;;;19.06;71.91;100403.78;5052283;28;20451;-65
2022/07/15 05:21:49;;;;;;;7.57;3.35;;;;;;;19.21;72.79;100405.50;5052318;28;20060;-65
2022/07/15 05:24:14;;;;;;;5.85;3.05;;;;;;;19.35;73.84;100408.25;5052198;28;20475;-65
2022/07/15 05:26:40;;;;;;;6.57;2.85;;;;;;;19.52;73.73;100405.38;5052030;28;20142;-65
2022/07/15 05:29:05;;;;;;;5.22;2.90;;;;;;;19.67;73.71;100409.78;5052222;28;20036;-65
2022/07/15 05:31:30;;;;;;;5.28;3.20;;;;;;;19.85;72.42;100414.00;5046294;28;20029;-65
2022/07/15 05:33:56;;;;;;;5.88;3.17;;;;;;;19.99;71.35;100410.44;5032200;28;20029;-65
2022/07/15 05:36:21;;;;;;;6.07;2.78;;;;;;;20.03;70.42;100415.53;5032156;28;20021;-66
2022/07/15 05:38:46;;;;;;;4.90;2.30;;;;;;;20.08;70.50;100412.56;5032181;28;20017;-66
2022/07/15 05:41:12;;;;;;;6.43;3.17;;;;;;;20.17;71.29;100415.53;5043220;28;20043;-65
2022/07/15 05:43:38;;;;;;;5.07;2.53;;;;;;;20.29;72.04;100419.28;5051929;28;20492;-65
2022/07/15 05:46:03;;;;;;;7.30;2.83;;;;;;;20.40;71.94;100417.59;5051578;28;20029;-65
2022/07/15 05:48:29;;;;;;;6.50;2.85;;;;;;;20.46;69.92;100419.88;5052075;28;20160;-66
2022/07/15 05:50:55;;;;;;;7.70;2.55;;;;;;;20.57;69.46;100419.19;5051811;28;20114;-65
2022/07/15 05:53:22;;;;;;;6.00;2.60;;;;;;;20.71;70.64;100421.81;5051715;28;20031;-65
2022/07/15 05:55:47;;;;;;;10.50;2.75;;;;;;;20.74;68.42;100425.16;5051538;28;20025;-66
2022/07/15 05:58:12;;;;;;;4.93;2.67;;;;;;;20.85;67.16;100433.44;5051642;28;20029;-66
2022/07/15 06:00:38;;;;;;;8.27;2.08;;;;;;;20.97;66.32;100433.56;5051708;28;20028;-66
2022/07/15 06:03:05;;;;;;;6.07;2.75;;;;;;;21.04;64.53;100434.91;5051830;28;20135;-66
2022/07/15 06:05:32;;;;;;;6.55;2.53;;;;;;;21.30;64.45;100442.09;5050318;28;20029;-65
2022/07/15 06:07:57;;;;;;;2.72;1.75;;;;;;;21.52;63.45;100426.06;5049639;28;20028;-65
2022/07/15 06:10:23;;;;;;;5.60;2.38;;;;;;;21.69;62.45;100433.84;5049402;28;20452;-65
2022/07/15 06:12:48;;;;;;;4.65;2.35;;;;;;;21.84;62.64;100435.50;5044737;28;20037;-65
2022/07/15 06:15:14;;;;;;;6.45;2.83;;;;;;;21.88;59.07;100434.28;5048549;28;20389;-64
2022/07/15 06:17:39;;;;;;;5.53;2.10;;;;;;;21.87;59.40;100433.44;5048976;28;20021;-65
2022/07/15 06:20:06;;;;;;;6.22;1.98;;;;;;;22.12;60.14;100429.81;5050040;28;20040;-66
2022/07/15 06:22:32;;;;;;;10.82;2.47;;;;;;;22.22;58.90;100436.28;5050769;28;20027;-66
2022/07/15 06:24:57;;;;;;;5.93;2.25;;;;;;;22.32;58.89;100434.63;5051099;28;20380;-66
2022/07/15 06:27:22;;;;;;;4.25;1.92;;;;;;;22.36;57.87;100427.13;5050965;28;20040;-66
2022/07/15 06:29:52;;;;;;;4.65;1.52;;;;;;;22.29;58.63;100424.00;5051120;28;20384;-66
2022/07/15 06:32:18;;;;;;;3.85;1.90;;;;;;;22.29;58.02;100434.84;5051247;28;20392;-66
2022/07/15 06:34:44;;;;;;;8.23;1.73;;;;;;;22.40;56.94;100424.09;5051083;28;20028;-66
2022/07/15 06:37:10;;;;;;;6.03;1.80;;;;;;;22.58;54.06;100436.28;5051014;28;20029;-65
2022/07/15 06:39:35;;;;;;;5.32;1.58;;;;;;;22.74;54.22;100426.00;5050778;28;20122;-65
2022/07/15 06:42:02;;;;;;;5.47;2.05;;;;;;;22.73;54.36;100428.84;5050973;28;20167;-65
2022/07/15 06:44:27;;;;;;;3.92;1.70;;;;;;;22.90;54.07;100421.13;5042550;28;20570;-65
2022/07/15 06:46:53;;;;;;;7.55;2.53;;;;;;;23.18;53.56;100434.31;5030834;28;20108;-65
2022/07/15 06:49:18;;;;;;;4.45;1.60;;;;;;;23.31;52.75;100431.56;5031314;28;20032;-65
2022/07/15 06:51:44;;;;;;;3.30;1.83;;;;;;;23.42;52.04;100435.16;5030696;28;20033;-65
2022/07/15 06:54:09;;;;;;;3.95;2.25;;;;;;;23.61;52.58;100433.69;5030904;28;20473;-64
2022/07/15 06:56:35;;;;;;;5.32;2.05;;;;;;;23.75;51.63;100438.88;5031065;28;20036;-64
2022/07/15 06:59:00;;;;;;;5.00;2.10;;;;;;;23.83;50.75;100436.41;5031268;28;20024;-64
2022/07/15 07:01:26;;;;;;;4.15;1.73;;;;;;;24.00;51.18;100436.78;5032739;28;20029;-64
2022/07/15 07:03:52;;;;;;;4.80;2.08;;;;;;;23.97;49.68;100441.59;5030703;28;20037;-64
2022/07/15 07:06:17;;;;;;;4.65;1.92;;;;;;;24.02;50.53;100440.25;5030840;28;20159;-64
2022/07/15 07:08:43;;;;;;;7.72;2.10;;;;;;;24.04;49.56;100438.28;5031956;28;20481;-64
2022/07/15 07:11:09;;;;;;;2.17;1.55;;;;;;;24.19;51.11;100447.91;5034931;28;20485;-64
2022/07/15 07:13:34;;;;;;;4.40;1.80;;;;;;;24.30;48.93;100436.16;5051243;28;20104;-64
2022/07/15 07:15:59;;;;;;;4.97;2.17;;;;;;;24.47;49.26;100441.06;5054466;28;20032;-64
2022/07/15 07:18:25;;;;;;;4.43;1.80;;;;;;;24.75;49.86;100440.50;5054594;28;20153;-64
2022/07/15 07:20:50;;;;;;;5.95;1.85;;;;;;;24.95;48.02;100436.97;5051253;28;20028;-64
2022/07/15 07:23:16;;;;;;;4.13;2.22;;;;;;;25.13;47.08;100429.97;5054749;28;20025;-64
2022/07/15 07:25:41;;;;;;;4.10;1.90;;;;;;;25.43;46.38;100449.13;5054543;28;20021;-64
2022/07/15 07:28:07;;;;;;;4.35;2.53;;;;;;;25.57;46.61;100440.59;5054311;28;20025;-64
2022/07/15 07:30:33;;;;;;;5.90;2.47;;;;;;;25.66;45.40;100442.53;5054543;28;20542;-64
2022/07/15 07:32:58;;;;;;;4.95;1.85;;;;;;;25.87;44.34;100437.91;5054354;28;20055;-64
2022/07/15 07:35:24;;;;;;;4.50;1.90;;;;;;;26.01;45.91;100433.97;5053241;28;20037;-64
2022/07/15 07:37:50;;;;;;;3.35;1.80;;;;;;;26.29;44.25;100433.22;5045200;28;20025;-64
2022/07/15 07:40:18;;;;;;;4.03;1.63;;;;;;;26.40;42.73;100438.56;5053343;28;20033;-64
2022/07/15 07:42:44;;;;;;;4.35;1.70;;;;;;;26.62;42.59;100440.19;5052761;28;20033;-64
2022/07/15 07:45:10;;;;;;;3.70;1.70;;;;;;;26.93;42.31;100433.63;5052377;28;20056;-64
2022/07/15 07:47:39;;;;;;;5.18;1.92;;;;;;;27.24;42.09;100443.38;5052575;28;20091;-64
2022/07/15 07:50:07;;;;;;;6.00;1.80;;;;;;;27.67;41.97;100435.56;5052765;28;20568;-64
2022/07/15 07:52:32;;;;;;;6.25;1.90;;;;;;;28.11;40.66;100440.34;5052377;28;20472;-64
2022/07/15 07:54:58;;;;;;;4.63;1.70;;;;;;;28.25;39.36;100437.06;5053524;28;20025;-64
2022/07/15 07:57:23;;;;;;;4.00;1.70;;;;;;;28.22;39.19;100442.84;5050316;28;20104;-64
2022/07/15 07:59:49;;;;;;;8.73;1.95;;;;;;;28.41;39.07;100442.78;5045925;28;20028;-65
2022/07/15 08:02:14;;;;;;;4.63;1.70;;;;;;;28.61;38.22;100437.19;5053228;28;20033;-64
2022/07/15 08:04:40;;;;;;;3.35;1.55;;;;;;;28.51;39.41;100431.78;5051506;28;20033;-64
2022/07/15 08:07:07;;;;;;;5.40;1.70;;;;;;;28.64;37.80;100437.75;5051270;28;20435;-64
2022/07/15 08:09:32;;;;;;;2.63;1.17;;;;;;;28.63;37.48;100435.16;5050943;28;20033;-64
2022/07/15 08:11:58;;;;;;;6.75;1.50;;;;;;;28.91;38.37;100440.44;5050974;28;20025;-64
2022/07/15 08:14:24;;;;;;;2.47;1.17;;;;;;;28.74;36.99;100432.19;5045750;28;20043;-64
2022/07/15 08:16:50;;;;;;;3.13;1.55;;;;;;;28.93;37.13;100432.06;5050660;28;20147;-64
2022/07/15 08:19:17;;;;;;;4.95;2.00;;;;;;;28.99;37.22;100445.13;5051547;28;20128;-64
2022/07/15 08:21:43;;;;;;;6.78;1.58;;;;;;;29.28;36.70;100440.28;5052168;28;20087;-64
2022/07/15 08:24:10;;;;;;;3.25;1.10;;;;;;;29.69;35.69;100436.84;5051957;28;20036;-64
2022/07/15 08:26:36;;;;;;;2.60;1.15;;;;;;;29.58;38.06;100446.19;5052153;28;20530;-64
2022/07/15 08:29:02;;;;;;;4.75;1.10;;;;;;;29.82;37.90;100441.94;5052037;28;20040;-64
2022/07/15 08:31:27;;;;;;;2.50;1.20;;;;;;;29.82;35.20;100448.25;5052753;28;20017;-64
2022/07/15 08:33:53;;;;;;;7.20;1.30;;;;;;;29.92;34.87;100449.00;5051848;28;20091;-64
2022/07/15 08:36:19;;;;;;;1.98;1.00;;;;;;;29.84;34.34;100448.09;5052380;28;20078;-64
2022/07/15 08:38:46;;;;;;;2.63;1.30;;;;;;;30.07;35.08;100452.00;5051739;28;20028;-65
2022/07/15 08:41:13;;;;;;;6.22;1.65;;;;;;;30.16;34.94;100451.91;5053262;28;20029;-65
2022/07/15 08:43:39;;;;;;;3.10;1.00;;;;;;;30.17;35.11;100453.59;5051120;28;20081;-65
2022/07/15 08:46:07;;;;;;;5.20;1.13;;;;;;;30.14;34.76;100459.41;5032848;28;20029;-65
2022/07/15 08:48:37;;;;;;;3.22;1.00;;;;;;;30.50;34.11;100446.38;5031450;28;20047;-65
2022/07/15 08:51:05;;;;;;;2.42;1.05;;;;;;;30.78;35.34;100458.88;5031756;28;20045;-65
2022/07/15 08:53:31;;;;;;;5.80;2.50;;;;;;;31.17;33.90;100462.69;5031647;28;20124;-65
2022/07/15 08:55:57;;;;;;;3.33;1.63;;;;;;;31.01;32.84;100464.56;5031548;28;20029;-65
2022/07/15 08:58:23;;;;;;;4.72;1.30;;;;;;;30.67;33.13;100467.41;5031412;28;20026;-65
2022/07/15 09:00:49;;;;;;;4.25;1.20;;;;;;;30.56;33.14;100463.06;5031297;28;20031;-65
2022/07/15 09:03:14;;;;;;;3.47;1.00;;;;;;;30.48;34.82;100473.16;5032417;28;20116;-65
2022/07/15 09:05:40;;;;;;;5.07;1.38;;;;;;;31.03;34.86;100477.13;5033515;28;20021;-65
2022/07/15 09:08:07;;;;;;;5.15;1.08;;;;;;;31.26;33.23;100471.81;5030834;28;20025;-65
2022/07/15 09:10:45;;;;;;;2.35;0.90;;;;;;;31.40;32.84;100472.03;5030588;28;20048;-65
2022/07/15 09:13:24;;;;;;;3.55;1.15;;;;;;;31.18;32.46;100469.94;5031081;28;20622;-65
2022/07/15 09:15:50;;;;;;;3.92;1.05;;;;;;;31.07;33.46;100474.91;5049605;28;20508;-65
2022/07/15 09:18:19;;;;;;;2.80;1.02;;;;;;;30.92;32.93;100467.31;5049150;28;20040;-65
2022/07/15 09:20:45;;;;;;;4.03;1.35;;;;;;;31.00;35.61;100468.34;5050735;28;20036;-66
2022/07/15 09:23:17;;;;;;;4.55;2.20;;;;;;;31.10;33.46;100463.56;5050876;28;20111;-66
2022/07/15 09:25:43;;;;;;;4.13;1.33;;;;;;;31.42;33.31;100469.97;5051190;28;20028;-66
2022/07/15 09:28:09;;;;;;;2.42;1.17;;;;;;;31.47;33.28;100461.19;5050806;28;20098;-66
2022/07/15 09:33:36;;;;;;;2.08;1.25;;;;;;;31.93;32.99;100457.72;5032571;28;20060;-66
2022/07/15 09:36:15;;;;;;;4.10;1.00;;;;;;;31.62;32.21;100464.97;5032269;28;20106;-66
2022/07/15 09:38:47;;;;;;;2.50;1.00;;;;;;;31.26;32.97;100469.94;5032224;28;20033;-66
2022/07/15 09:41:25;;;;;;;1.77;0.93;;;;;;;31.63;31.98;100463.94;5031755;28;20461;-66
2022/07/15 09:44:09;;;;;;;3.42;1.30;;;;;;;30.91;32.89;100463.88;5034205;28;20452;-65
2022/07/15 09:46:49;;;;;;;2.45;1.15;;;;;;;30.84;34.76;100453.56;5047098;28;20504;-65
2022/07/15 09:49:27;;;;;;;1.98;0.90;;;;;;;31.05;32.07;100463.22;5050415;28;20029;-65
2022/07/15 09:51:58;;;;;;;5.85;1.15;;;;;;;31.32;33.61;100460.19;5050808;28;20066;-65
2022/07/15 09:54:26;;;;;;;4.63;1.23;;;;;;;31.48;32.36;100462.94;5050632;28;20048;-66
2022/07/15 09:56:52;;;;;;;4.60;1.40;;;;;;;31.35;31.61;100455.19;5050852;28;20032;-66
2022/07/15 09:59:18;;;;;;;2.67;0.90;;;;;;;31.61;31.72;100458.63;5051798;28;20033;-66
2022/07/15 10:01:47;;;;;;;3.78;1.20;;;;;;;31.91;31.30;100457.91;5051864;28;20029;-65
2022/07/15 10:04:15;;;;;;;7.13;1.30;;;;;;;31.79;32.96;100461.16;5050581;28;20028;-65
2022/07/15 10:06:42;;;;;;;3.17;1.20;;;;;;;31.93;31.63;100452.22;5050097;28;20039;-65
2022/07/15 10:09:09;;;;;;;4.22;1.17;;;;;;;31.36;32.57;100447.78;5051172;28;20032;-65
2022/07/15 10:11:41;;;;;;;2.63;1.08;;;;;;;31.41;34.13;100442.63;5051692;28;20025;-65
2022/07/15 10:14:19;;;;;;;3.97;1.17;;;;;;;31.73;32.04;100445.38;5051720;28;20046;-65
2022/07/15 10:17:10;;;;;;;2.22;0.98;;;;;;;32.12;32.92;100440.81;5051535;28;20029;-65
2022/07/15 10:19:53;;;;;;;2.25;1.00;;;;;;;32.54;33.22;100435.00;5050203;28;20045;-65
2022/07/15 10:22:28;;;;;;;6.38;1.58;;;;;;;32.70;30.92;100443.16;5051691;28;20040;-65
2022/07/15 10:25:12;;;;;;;3.10;1.05;;;;;;;32.35;30.27;100441.75;5051242;28;20036;-65
2022/07/15 10:28:15;;;;;;;2.15;1.20;;;;;;;32.57;31.87;100438.22;5051041;28;20025;-65
2022/07/15 10:30:42;;;;;;;1.98;1.13;;;;;;;32.41;29.42;100438.31;5051160;28;20040;-65
2022/07/15 10:33:15;;;;;;;2.22;1.00;;;;;;;32.30;32.18;100435.94;5051230;28;20419;-66
2022/07/15 10:35:43;;;;;;;;;;;;;;;32.45;31.05;100431.41;5050374;28;20020;-66
2022/07/15 10:38:35;;;;;;;2.90;0.82;;;;;;;32.65;30.74;100429.94;5049356;28;19917;-66
2022/07/15 10:41:02;;;;;;;3.63;1.13;;;;;;;32.78;32.19;100432.97;5051050;28;20046;-66
2022/07/15 10:43:42;;;;;;;4.18;1.20;;;;;;;32.72;32.29;100413.53;5050796;28;20017;-66
2022/07/15 10:46:20;;;;;;;4.13;1.30;;;;;;;32.86;31.79;100427.38;5031374;28;20026;-65
2022/07/15 10:48:58;;;;;;;5.85;1.30;;;;;;;32.77;31.22;100413.84;5030942;28;20025;-66
2022/07/15 10:51:36;;;;;;;2.90;1.17;;;;;;;33.20;29.47;100430.59;5031019;28;20087;-66
2022/07/15 10:54:07;;;;;;;3.15;0.90;;;;;;;33.26;30.95;100420.75;5030966;28;20026;-66
2022/07/15 10:56:34;;;;;;;3.00;1.08;;;;;;;33.41;29.41;100427.19;5030873;28;20508;-65
2022/07/15 10:59:20;;;;;;;2.45;1.08;;;;;;;33.67;28.53;100424.00;5029717;28;20033;-65
2022/07/15 11:02:09;;;;;;;2.65;1.05;;;;;;;33.78;29.97;100418.88;5029056;28;20033;-65
2022/07/15 11:04:36;;;;;;;4.78;1.13;;;;;;;33.07;28.03;100413.81;5011358;28;20025;-65
2022/07/15 11:07:07;;;;;;;2.90;1.02;;;;;;;33.13;29.74;100418.59;5028892;28;20061;-65
2022/07/15 11:09:52;;;;;;;2.35;1.00;;;;;;;33.32;30.40;100420.84;5031075;28;20033;-65
2022/07/15 11:12:24;;;;;;;2.83;1.40;;;;;;;33.66;29.18;100423.13;5028951;28;20028;-65
2022/07/15 11:14:58;;;;;;;;;;;;;;;34.21;28.35;100422.72;5042088;28;20025;-65
2022/07/15 11:17:46;;;;;;;2.03;1.13;;;;;;;33.82;27.07;100428.50;5050835;28;20429;-65
2022/07/15 11:20:15;;;;;;;2.53;1.00;;;;;;;33.67;27.07;100415.72;5046884;28;20045;-65
2022/07/15 11:22:42;;;;;;;1.80;0.98;;;;;;;33.67;28.21;100407.44;5031459;28;20033;-65
2022/07/15 11:25:28;;;;;;;2.65;1.05;;;;;;;33.86;28.62;100409.63;5042039;28;20380;-65
2022/07/15 11:28:11;;;;;;;3.13;1.00;;;;;;;33.72;28.28;100418.78;5050327;28;20056;-65
2022/07/15 11:30:53;;;;;;;1.85;0.90;;;;;;;33.79;28.02;100406.78;5050550;28;20041;-65
2022/07/15 11:33:20;;;;;;;2.67;1.00;;;;;;;33.89;27.73;100417.56;5050827;28;20025;-65